createdAt,value
2018-11-25T01:25:03.412Z,100750.14
2018-11-25T01:42:27.596Z,100722.77
2018-11-25T01:48:07.637Z,100727.47
2018-11-25T01:59:14.378Z,100714.23
2018-11-25T02:06:05.505Z,100715.41
2018-11-25T02:19:20.225Z,100710.78
2018-11-25T02:24:26.212Z,100707.63
2018-11-25T02:29:35.015Z,100708.48
2018-11-25T02:34:38.344Z,100658.16
2018-11-25T02:39:41.351Z,100701.61
2018-11-25T02:44:44.395Z,100694.73
2018-11-25T02:49:47.434Z,100697.00
2018-11-25T02:54:50.463Z,100697.94
2018-11-25T02:59:53.516Z,100700.11
2018-11-25T03:04:56.559Z,100696.59
2018-11-25T03:09:59.593Z,100699.30
2018-11-25T03:15:02.721Z,100695.85
2018-11-25T03:20:09.429Z,100700.05
2018-11-25T03:25:16.268Z,100701.36
2018-11-25T03:30:21.026Z,100703.14
2018-11-25T03:35:24.064Z,100696.69
2018-11-25T03:40:27.111Z,100697.61
2018-11-25T03:45:30.247Z,100699.30
2018-11-25T03:50:34.424Z,100704.16
2018-11-25T03:55:37.737Z,100691.59
2018-11-25T04:00:40.890Z,100690.05
2018-11-25T04:05:44.246Z,100688.16
2018-11-25T04:10:47.505Z,100692.81
2018-11-25T04:15:50.744Z,100615.69
2018-11-25T04:20:53.855Z,100690.73
2018-11-25T04:25:57.160Z,100689.90
2018-11-25T04:31:00.342Z,100693.70
2018-11-25T04:36:03.476Z,100693.80
2018-11-25T04:41:06.547Z,100701.23
2018-11-25T04:46:10.104Z,100586.11
2018-11-25T04:51:13.148Z,100697.27
2018-11-25T04:56:16.260Z,100701.44
2018-11-25T05:01:19.540Z,100691.56
2018-11-25T05:06:22.679Z,100689.34
2018-11-25T05:11:25.806Z,100691.27
2018-11-25T05:16:29.486Z,100695.02
2018-11-25T05:21:32.639Z,100692.42
2018-11-25T05:26:35.837Z,100687.69
2018-11-25T05:31:39.158Z,100692.34
2018-11-25T05:36:42.388Z,100677.83
2018-11-25T05:41:45.534Z,100686.70
2018-11-25T05:46:48.740Z,100685.23
2018-11-25T05:51:52.440Z,100686.99
2018-11-25T05:56:56.263Z,100690.03
2018-11-25T06:01:59.494Z,100693.91
2018-11-25T06:07:02.630Z,100699.08
2018-11-25T06:12:07.358Z,100699.98
2018-11-25T06:17:10.502Z,100707.66
2018-11-25T06:22:13.542Z,100714.16
2018-11-25T06:27:16.724Z,100720.53
2018-11-25T06:32:20.128Z,100720.55
2018-11-25T06:37:25.721Z,100726.20
2018-11-25T06:42:28.923Z,100727.63
2018-11-25T06:47:32.017Z,100727.56
2018-11-25T06:52:35.107Z,100729.61
2018-11-25T06:57:38.244Z,100732.71
2018-11-25T07:02:41.611Z,100731.72
2018-11-25T07:07:44.692Z,100739.97
2018-11-25T07:12:49.399Z,100732.19
2018-11-25T07:17:52.528Z,100739.95
2018-11-25T07:22:55.852Z,100740.35
2018-11-25T07:27:58.905Z,100741.14
2018-11-25T07:33:01.945Z,100740.93
2018-11-25T07:38:05.605Z,100743.03
2018-11-25T07:43:08.957Z,100736.95
2018-11-25T07:48:12.226Z,100751.69
2018-11-25T07:53:15.442Z,100746.33
2018-11-25T07:58:18.505Z,100758.75
2018-11-25T08:03:21.608Z,100747.47
2018-11-25T08:08:24.744Z,100740.66
2018-11-25T08:13:27.883Z,100749.13
2018-11-25T08:18:31.094Z,100752.14
2018-11-25T08:23:34.195Z,100748.55
2018-11-25T08:28:37.309Z,100751.55
2018-11-25T08:33:40.442Z,100754.95
2018-11-25T08:38:43.485Z,100768.32
2018-11-25T08:43:46.607Z,100769.69
2018-11-25T08:48:49.654Z,100767.02
2018-11-25T08:53:52.729Z,100769.67
2018-11-25T08:58:55.826Z,100771.42
2018-11-25T09:03:58.960Z,100768.77
2018-11-25T09:09:02.108Z,100773.02
2018-11-25T09:14:05.292Z,100763.11
2018-11-25T09:19:08.377Z,100767.32
2018-11-25T09:24:11.488Z,100767.75
2018-11-25T09:29:14.603Z,100701.66
2018-11-25T09:34:17.685Z,100778.53
2018-11-25T09:39:20.811Z,100782.92
2018-11-25T09:44:23.903Z,100783.01
2018-11-25T09:49:26.983Z,100780.40
2018-11-25T09:54:30.084Z,100778.44
2018-11-25T09:59:33.181Z,100788.44
2018-11-25T10:04:36.394Z,100788.94
2018-11-25T10:09:39.527Z,100710.89
2018-11-25T10:14:42.680Z,100630.59
2018-11-25T10:19:45.768Z,100787.22
2018-11-25T10:24:48.870Z,100782.40
2018-11-25T10:29:51.975Z,100788.80
2018-11-25T10:34:54.979Z,100782.74
2018-11-25T10:39:58.035Z,100791.56
2018-11-25T10:45:01.098Z,100793.18
2018-11-25T10:50:04.428Z,100781.84
2018-11-25T10:55:09.926Z,100784.02
2018-11-25T11:00:29.388Z,100796.43
2018-11-25T11:05:38.092Z,100795.06
2018-11-25T11:10:41.172Z,100789.27
2018-11-25T11:15:44.230Z,100785.05
2018-11-25T11:20:47.329Z,100777.64
2018-11-25T11:25:50.369Z,100780.20
2018-11-25T11:30:53.435Z,100774.20
2018-11-25T11:35:56.489Z,100765.57
2018-11-25T11:40:59.589Z,100768.55
2018-11-25T11:46:02.700Z,100772.35
2018-11-25T11:51:05.828Z,100763.80
2018-11-25T11:56:08.908Z,100760.23
2018-11-25T12:01:12.566Z,100761.82
2018-11-25T12:06:15.637Z,100761.94
2018-11-25T12:11:18.927Z,100767.52
2018-11-25T12:16:21.942Z,100772.70
2018-11-25T12:21:25.316Z,100706.50
2018-11-25T12:26:28.451Z,100774.19
2018-11-25T12:31:31.777Z,100778.84
2018-11-25T12:36:34.823Z,100779.45
2018-11-25T12:41:38.064Z,100770.53
2018-11-25T12:46:41.305Z,100757.03
2018-11-25T12:51:45.158Z,100756.52
2018-11-25T12:56:51.820Z,100758.05
2018-11-25T13:01:51.882Z,100758.16
2018-11-25T13:06:54.956Z,100767.11
2018-11-25T13:11:58.141Z,100755.20
2018-11-25T13:17:01.249Z,100755.23
2018-11-25T13:22:04.584Z,100750.78
2018-11-25T13:27:08.446Z,100739.63
2018-11-25T13:32:12.265Z,100746.34
2018-11-25T13:37:15.383Z,100738.49
2018-11-25T13:42:18.484Z,100745.91
2018-11-25T13:47:21.609Z,100745.04
2018-11-25T13:52:24.775Z,100751.27
2018-11-25T13:57:27.870Z,100751.48
2018-11-25T14:02:30.968Z,100755.30
2018-11-25T14:07:34.043Z,100746.83
2018-11-25T14:12:37.207Z,100750.53
2018-11-25T14:17:40.368Z,100744.66
2018-11-25T14:22:43.479Z,100762.49
2018-11-25T14:27:49.036Z,100759.17
2018-11-25T14:32:52.224Z,100756.70
2018-11-25T14:37:55.273Z,100754.44
2018-11-25T14:42:58.383Z,100754.00
2018-11-25T14:48:01.437Z,100756.11
2018-11-25T14:53:04.918Z,100762.49
2018-11-25T14:58:07.993Z,100758.36
2018-11-25T15:03:11.026Z,100759.53
2018-11-25T15:08:19.560Z,100757.73
2018-11-25T15:13:22.621Z,100754.56
2018-11-25T15:18:25.663Z,100754.35
2018-11-25T15:23:28.688Z,100755.81
2018-11-25T15:28:31.716Z,100755.79
2018-11-25T15:33:35.406Z,100757.29
2018-11-25T15:38:38.455Z,100755.95
2018-11-25T15:43:41.527Z,100760.30
2018-11-25T15:48:44.575Z,100754.80
2018-11-25T15:53:47.639Z,100766.36
2018-11-25T15:58:50.716Z,100761.19
2018-11-25T16:03:53.792Z,100766.70
2018-11-25T16:08:56.886Z,100757.92
2018-11-25T16:13:59.940Z,100750.78
2018-11-25T16:19:03.213Z,100754.29
2018-11-25T16:24:07.779Z,100755.97
2018-11-25T16:29:13.937Z,100752.84
2018-11-25T16:34:17.021Z,100756.51
2018-11-25T16:39:20.143Z,100745.44
2018-11-25T16:44:23.272Z,100746.47
2018-11-25T16:49:26.328Z,100752.73
2018-11-25T16:54:29.407Z,100750.80
2018-11-25T16:59:32.479Z,100756.44
2018-11-25T17:04:35.550Z,100753.65
2018-11-25T17:09:38.662Z,100754.10
2018-11-25T17:14:41.890Z,100758.60
2018-11-25T17:19:44.968Z,100757.84
2018-11-25T17:24:48.235Z,100760.60
2018-11-25T17:29:51.331Z,100759.01
2018-11-25T17:34:54.393Z,100757.08
2018-11-25T17:39:57.524Z,100768.67
2018-11-25T17:45:00.660Z,100767.67
2018-11-25T17:50:07.872Z,100767.43
2018-11-25T17:55:12.160Z,100761.92
2018-11-25T18:00:38.548Z,100765.39
2018-11-25T18:05:41.681Z,100773.11
2018-11-25T18:10:44.748Z,100763.07
2018-11-25T18:15:48.368Z,100783.52
2018-11-25T18:20:56.517Z,100793.08
2018-11-25T18:25:59.748Z,100787.20
2018-11-25T18:31:02.912Z,100791.69
2018-11-25T18:36:08.665Z,100787.79
2018-11-25T18:41:11.790Z,100788.01
2018-11-25T18:46:14.858Z,100787.84
2018-11-25T18:51:18.160Z,100791.03
2018-11-25T18:56:21.226Z,100782.45
2018-11-25T19:02:10.448Z,100783.86
2018-11-25T19:07:13.671Z,100783.41
2018-11-25T19:12:16.752Z,100787.73
2018-11-25T19:17:19.812Z,100785.11
2018-11-25T19:22:23.141Z,100782.97
2018-11-25T19:27:26.291Z,100773.55
2018-11-25T19:32:29.388Z,100776.55
2018-11-25T19:37:32.685Z,100776.80
2018-11-25T19:42:36.126Z,100776.72
2018-11-25T19:47:39.246Z,100783.42
2018-11-25T19:52:42.317Z,100781.94
2018-11-25T19:57:45.406Z,100796.29
2018-11-25T20:02:49.399Z,100806.45
2018-11-25T20:07:52.132Z,100798.56
2018-11-25T20:12:57.657Z,100802.41
2018-11-25T20:18:01.309Z,100821.56
2018-11-25T20:23:05.848Z,100819.25
2018-11-25T20:28:08.972Z,100807.64
2018-11-25T20:33:17.899Z,100809.43
2018-11-25T20:38:26.521Z,100807.72
2018-11-25T20:43:29.619Z,100808.75
2018-11-25T20:48:32.684Z,100805.09
2018-11-25T20:53:41.481Z,100806.20
2018-11-25T20:58:44.572Z,100804.82
2018-11-25T21:03:47.672Z,100790.69
2018-11-25T21:08:50.724Z,100791.78
2018-11-25T21:13:53.811Z,100789.71
2018-11-25T21:18:56.868Z,100796.67
2018-11-25T21:23:59.891Z,100804.09
2018-11-25T21:29:03.048Z,100798.95
2018-11-25T21:34:06.105Z,100802.43
2018-11-25T21:39:09.857Z,100795.67
2018-11-25T21:44:12.935Z,100801.19
2018-11-25T21:49:16.006Z,100797.34
2018-11-25T21:54:19.074Z,100803.45
2018-11-25T21:59:22.146Z,100807.31
2018-11-25T22:04:25.312Z,100800.65
2018-11-25T22:09:28.348Z,100809.89
2018-11-25T22:14:32.185Z,100805.42
2018-11-25T22:19:35.189Z,100797.30
2018-11-25T22:24:38.361Z,100809.97
2018-11-25T22:29:41.502Z,100802.81
2018-11-25T22:34:44.613Z,100793.48
2018-11-25T22:39:47.727Z,100793.97
2018-11-25T22:44:50.819Z,100800.30
2018-11-25T22:49:53.920Z,100805.56
2018-11-25T22:54:56.996Z,100794.38
2018-11-25T23:00:00.041Z,100796.64
2018-11-25T23:05:20.147Z,100808.13
2018-11-25T23:10:23.195Z,100809.23
2018-11-25T23:15:26.348Z,100824.67
2018-11-25T23:20:29.424Z,100825.59
2018-11-25T23:25:32.479Z,100834.78
2018-11-25T23:30:35.534Z,100832.78
2018-11-25T23:35:38.593Z,100834.52
2018-11-25T23:40:41.655Z,100833.43
2018-11-25T23:45:44.743Z,100825.91
2018-11-25T23:50:47.874Z,100824.79
2018-11-25T23:55:51.169Z,100830.09
